Time;durP1;ratioP1;P1;durP2;ratioP2;P2;SDS_P1;SDS_P2;PMS_P1;PMS_P2;Temp;Humidity;BMP_temperature;BMP_pressure;BME280_temperature;BME280_humidity;BME280_pressure;Samples;Min_cycle;Max_cycle;Signal;HPM_P1;HPM_P2
2023/03/25 00:02:49;;;;;;;5.53;0.90;;;;;;;11.18;100.00;98955.38;12221071;19;20480;-83
2023/03/25 00:06:53;;;;;;;1.65;0.63;;;;;;;10.25;100.00;98967.19;12221523;19;20007;-82
2023/03/25 00:10:57;;;;;;;1.10;0.40;;;;;;;9.55;100.00;98960.19;12216176;19;20006;-83
2023/03/25 00:14:58;;;;;;;1.73;0.47;;;;;;;9.11;100.00;98963.94;12190703;19;20020;-83
2023/03/25 00:19:01;;;;;;;4.73;0.50;;;;;;;8.82;100.00;98960.63;12212498;19;20019;-83
2023/03/25 00:23:03;;;;;;;1.13;0.40;;;;;;;8.71;100.00;98969.84;12224095;19;20013;-83
2023/03/25 00:27:05;;;;;;;1.08;0.30;;;;;;;8.60;100.00;98970.84;12203520;19;20252;-82
2023/03/25 00:31:12;;;;;;;0.73;0.35;;;;;;;8.47;100.00;98974.81;12225335;19;20077;-83
2023/03/25 00:35:16;;;;;;;1.08;0.40;;;;;;;8.43;100.00;98980.00;12228515;19;20024;-83
2023/03/25 00:39:18;;;;;;;2.72;0.30;;;;;;;8.38;100.00;98976.31;12204261;19;20031;-83
2023/03/25 00:43:20;;;;;;;0.88;0.45;;;;;;;8.33;100.00;98979.00;12221575;19;20071;-83
2023/03/25 00:47:21;;;;;;;2.08;0.63;;;;;;;8.32;100.00;98975.41;12204865;19;20014;-82
2023/03/25 00:51:25;;;;;;;2.17;0.50;;;;;;;8.31;100.00;98976.50;12221144;19;20011;-82
2023/03/25 00:55:27;;;;;;;2.95;0.47;;;;;;;8.32;100.00;98966.34;12219819;19;20109;-82
2023/03/25 00:59:28;;;;;;;1.65;0.70;;;;;;;8.33;100.00;98965.25;12196782;19;20050;-82
2023/03/25 01:03:35;;;;;;;1.13;0.60;;;;;;;8.32;100.00;98963.63;12218259;19;20419;-83
2023/03/25 01:07:40;;;;;;;2.55;0.70;;;;;;;8.29;100.00;98964.13;12220255;19;20022;-81
2023/03/25 01:11:43;;;;;;;2.92;0.57;;;;;;;8.30;100.00;98963.03;12199069;19;20370;-81
2023/03/25 01:15:45;;;;;;;2.67;0.88;;;;;;;8.33;100.00;98955.13;12217961;19;20007;-82
2023/03/25 01:19:49;;;;;;;3.38;0.77;;;;;;;8.38;100.00;98957.09;12215730;19;20011;-82
2023/03/25 01:23:51;;;;;;;2.17;0.70;;;;;;;8.41;100.00;98956.63;12195608;19;20006;-81
2023/03/25 01:27:53;;;;;;;5.53;1.00;;;;;;;8.49;100.00;98955.34;12217459;19;20074;-81
2023/03/25 01:31:54;;;;;;;2.95;1.10;;;;;;;8.53;100.00;98951.00;12218032;19;20760;-81
2023/03/25 01:35:56;;;;;;;2.88;0.90;;;;;;;8.61;100.00;98931.31;12196321;19;20151;-80
2023/03/25 01:39:58;;;;;;;6.45;1.65;;;;;;;8.67;100.00;98936.59;12218632;19;20011;-81
2023/03/25 01:44:02;;;;;;;4.00;0.85;;;;;;;8.75;100.00;98937.22;12215544;19;20079;-81
2023/03/25 01:48:09;;;;;;;4.25;0.82;;;;;;;8.79;100.00;98930.13;12193026;19;20834;-81
2023/03/25 01:52:20;;;;;;;4.28;0.85;;;;;;;8.83;100.00;98921.13;12216555;19;20011;-81
2023/03/25 01:56:29;;;;;;;7.38;1.25;;;;;;;8.85;100.00;98921.66;12189567;19;20476;-81
2023/03/25 02:00:31;;;;;;;5.60;0.80;;;;;;;8.89;100.00;98916.47;12223192;19;20007;-81
2023/03/25 02:04:50;;;;;;;2.30;0.90;;;;;;;8.92;100.00;98920.63;12223318;19;20015;-81
2023/03/25 02:08:55;;;;;;;2.85;1.17;;;;;;;8.86;100.00;98906.84;12197571;19;20018;-82
2023/03/25 02:12:58;;;;;;;3.20;0.80;;;;;;;8.72;100.00;98908.38;12219028;19;20038;-83
2023/03/25 02:17:06;;;;;;;;;;;;;;;8.61;100.00;98904.69;12220620;19;20034;-83
2023/03/25 02:21:44;;;;;;;7.47;0.98;;;;;;;8.57;100.00;98909.03;12197395;19;19935;-82
2023/03/25 02:26:08;;;;;;;3.53;0.80;;;;;;;8.53;100.00;98885.91;12214696;19;20002;-83
2023/03/25 02:30:28;;;;;;;5.85;0.80;;;;;;;8.43;100.00;98888.56;12192570;19;20011;-84
2023/03/25 02:34:58;;;;;;;1.90;0.70;;;;;;;8.33;100.00;98897.50;12217863;19;20034;-85
2023/03/25 02:39:11;;;;;;;1.17;0.40;;;;;;;8.15;100.00;98884.94;12192934;19;20007;-83
2023/03/25 02:43:26;;;;;;;1.88;0.73;;;;;;;8.04;100.00;98898.78;12207387;19;20010;-84
2023/03/25 02:47:40;;;;;;;2.92;0.65;;;;;;;8.01;100.00;98913.03;12190241;19;20035;-83
2023/03/25 02:51:54;;;;;;;1.95;0.65;;;;;;;7.92;100.00;98929.09;12215043;19;20066;-84
2023/03/25 02:56:00;;;;;;;2.50;0.70;;;;;;;7.89;100.00;98927.69;12214415;19;20010;-83
2023/03/25 03:00:17;;;;;;;2.45;0.35;;;;;;;7.88;100.00;98926.03;12191647;19;20493;-83
2023/03/25 03:04:18;;;;;;;1.60;0.40;;;;;;;7.85;100.00;98937.50;12214866;19;20034;-83
2023/03/25 03:08:39;;;;;;;1.07;0.43;;;;;;;7.83;100.00;98925.97;12204350;19;20024;-85
2023/03/25 03:13:01;;;;;;;1.42;0.40;;;;;;;7.75;100.00;98926.38;12211948;19;20078;-84
2023/03/25 03:17:21;;;;;;;1.10;0.40;;;;;;;7.74;100.00;98933.78;12247499;19;20008;-83
2023/03/25 03:21:37;;;;;;;2.20;0.50;;;;;;;7.73;100.00;98936.78;12228554;19;20021;-84
2023/03/25 03:25:38;;;;;;;0.57;0.43;;;;;;;7.73;100.00;98936.78;12250514;19;20051;-83
2023/03/25 03:29:53;;;;;;;1.35;0.50;;;;;;;7.71;100.00;98938.97;12219625;19;20095;-84
2023/03/25 03:34:09;;;;;;;0.60;0.40;;;;;;;7.73;100.00;98931.28;12217114;19;20115;-82
2023/03/25 03:38:15;;;;;;;0.88;0.43;;;;;;;7.75;100.00;98931.88;12221054;19;20034;-84
2023/03/25 03:42:24;;;;;;;1.88;0.40;;;;;;;7.80;100.00;98937.44;12197269;19;20378;-84
2023/03/25 03:46:32;;;;;;;1.17;0.50;;;;;;;7.84;100.00;98935.00;12215722;19;20082;-83
2023/03/25 03:50:41;;;;;;;3.20;0.57;;;;;;;7.89;100.00;98935.91;12194316;19;20006;-82
2023/03/25 03:54:55;;;;;;;3.50;0.55;;;;;;;7.93;100.00;98915.09;12212137;19;20006;-82
2023/03/25 03:59:01;;;;;;;1.50;0.80;;;;;;;7.97;100.00;98929.13;12226084;19;20014;-82
2023/03/25 04:03:13;;;;;;;3.03;0.82;;;;;;;8.04;100.00;98932.53;12202784;19;20476;-81
2023/03/25 04:07:19;;;;;;;5.75;1.08;;;;;;;8.06;100.00;98930.38;12224662;19;20014;-82
2023/03/25 04:11:24;;;;;;;2.65;0.80;;;;;;;8.08;100.00;98943.84;12219681;19;20027;-82
2023/03/25 04:15:26;;;;;;;3.63;0.73;;;;;;;8.08;100.00;98955.63;12224047;19;20116;-82
2023/03/25 04:19:27;;;;;;;1.55;0.93;;;;;;;8.10;100.00;98944.41;12234238;19;20019;-81
2023/03/25 04:23:29;;;;;;;4.82;0.60;;;;;;;8.09;100.00;98937.25;12204189;19;20017;-82
2023/03/25 04:27:31;;;;;;;1.90;0.90;;;;;;;8.12;100.00;98945.81;12224746;19;20011;-81
2023/03/25 04:31:33;;;;;;;2.13;0.60;;;;;;;8.13;100.00;98946.66;12226712;19;20022;-82
2023/03/25 04:35:34;;;;;;;2.17;0.68;;;;;;;8.21;100.00;98957.19;12203284;19;20010;-83
2023/03/25 04:39:38;;;;;;;5.22;0.82;;;;;;;8.20;100.00;98959.06;12225080;19;20528;-83
2023/03/25 04:43:43;;;;;;;2.63;0.80;;;;;;;8.25;100.00;98963.00;12223777;19;20006;-82
2023/03/25 04:47:47;;;;;;;1.63;0.70;;;;;;;8.26;100.00;98965.47;12202923;19;20377;-82
2023/03/25 04:51:51;;;;;;;4.30;0.95;;;;;;;8.21;100.00;98974.47;12224506;19;20007;-85
2023/03/25 04:55:54;;;;;;;3.85;0.75;;;;;;;8.19;100.00;98976.63;12223552;19;20071;-82
2023/03/25 04:59:55;;;;;;;4.40;0.80;;;;;;;8.17;100.00;98975.22;12244059;19;20670;-83
2023/03/25 05:04:04;;;;;;;4.00;0.95;;;;;;;8.18;100.00;98975.00;12260568;19;20061;-83
2023/03/25 05:08:06;;;;;;;2.20;0.60;;;;;;;8.27;100.00;98977.25;12230015;19;20017;-82
2023/03/25 05:12:10;;;;;;;3.78;0.80;;;;;;;8.26;100.00;98968.22;12209394;19;20017;-83
2023/03/25 05:16:12;;;;;;;4.68;1.00;;;;;;;8.33;100.00;98970.75;12235507;19;20003;-86
2023/03/25 05:20:14;;;;;;;3.47;0.70;;;;;;;8.34;100.00;98973.25;12277389;19;20006;-82
2023/03/25 05:24:16;;;;;;;4.43;0.80;;;;;;;8.39;100.00;98972.53;12257943;19;20006;-82
2023/03/25 05:28:18;;;;;;;3.15;0.70;;;;;;;8.35;100.00;98976.81;12259760;19;20046;-82
2023/03/25 05:32:20;;;;;;;2.60;1.37;;;;;;;8.36;100.00;98979.34;12222555;19;20010;-83
2023/03/25 05:36:25;;;;;;;2.70;0.50;;;;;;;8.39;100.00;98980.78;12197129;19;20018;-85
2023/03/25 05:40:27;;;;;;;6.40;0.85;;;;;;;8.40;100.00;98983.25;12217181;19;20478;-84
2023/03/25 05:44:29;;;;;;;1.00;0.57;;;;;;;8.43;100.00;98984.66;12195310;19;20350;-83
2023/03/25 05:48:31;;;;;;;3.72;0.77;;;;;;;8.44;100.00;98989.88;12217284;19;20041;-83
2023/03/25 05:52:35;;;;;;;5.88;0.73;;;;;;;8.49;100.00;98991.88;12214839;19;20019;-82
2023/03/25 05:56:37;;;;;;;4.03;1.13;;;;;;;8.44;100.00;98998.09;12193520;19;20015;-81
2023/03/25 06:00:39;;;;;;;2.87;0.77;;;;;;;8.47;100.00;99004.19;12214869;19;20105;-84
2023/03/25 06:04:41;;;;;;;6.00;1.00;;;;;;;8.59;100.00;99008.44;12212914;19;20035;-81
2023/03/25 06:08:49;;;;;;;3.55;0.70;;;;;;;8.65;100.00;99010.16;12194261;19;20039;-81
2023/03/25 06:12:52;;;;;;;1.45;0.68;;;;;;;8.56;100.00;99013.63;12208462;19;20007;-82
2023/03/25 06:16:55;;;;;;;2.30;0.75;;;;;;;8.77;100.00;99032.00;12186502;19;20391;-81
2023/03/25 06:20:57;;;;;;;2.80;1.38;;;;;;;8.95;100.00;99030.81;12195601;19;20010;-80
2023/03/25 06:25:00;;;;;;;3.92;0.85;;;;;;;9.00;100.00;99033.63;12217836;19;20014;-81
2023/03/25 06:29:04;;;;;;;5.60;1.25;;;;;;;9.02;100.00;99039.72;12216836;19;20018;-82
2023/03/25 06:33:06;;;;;;;5.00;0.90;;;;;;;9.18;100.00;99050.88;12207124;19;20014;-84
2023/03/25 06:37:09;;;;;;;2.95;0.82;;;;;;;9.30;100.00;99052.34;12232930;19;20011;-82
2023/03/25 06:41:12;;;;;;;3.85;0.82;;;;;;;9.32;100.00;99043.88;12220210;19;20014;-83
2023/03/25 06:45:15;;;;;;;3.72;0.80;;;;;;;9.21;100.00;99044.84;12202875;19;20034;-83
2023/03/25 06:49:26;;;;;;;1.92;1.02;;;;;;;9.20;100.00;99040.44;12221807;19;20060;-84
2023/03/25 06:53:30;;;;;;;7.28;1.55;;;;;;;9.24;100.00;99038.81;12193695;19;20032;-82
2023/03/25 06:57:32;;;;;;;2.73;0.87;;;;;;;9.32;100.00;99022.69;12215369;19;20483;-83
2023/03/25 07:01:34;;;;;;;6.93;1.40;;;;;;;9.17;100.00;99033.53;12218562;19;20025;-83
2023/03/25 07:05:35;;;;;;;6.88;1.30;;;;;;;9.13;100.00;99033.25;12195166;19;20015;-82
2023/03/25 07:09:37;;;;;;;4.10;0.90;;;;;;;9.16;100.00;99037.41;12215860;19;20022;-82
2023/03/25 07:13:39;;;;;;;4.57;1.20;;;;;;;9.16;100.00;99029.16;12216434;19;20006;-81
2023/03/25 07:17:41;;;;;;;3.47;1.15;;;;;;;9.24;100.00;99027.84;12201442;19;20627;-82
2023/03/25 07:21:43;;;;;;;6.32;1.63;;;;;;;9.26;100.00;99025.66;12218470;19;20087;-81
2023/03/25 07:25:46;;;;;;;5.93;1.13;;;;;;;9.45;100.00;99013.16;12213060;19;20353;-83
2023/03/25 07:29:48;;;;;;;6.40;2.13;;;;;;;9.59;100.00;99008.91;12194118;19;20028;-83
2023/03/25 07:33:50;;;;;;;5.55;1.38;;;;;;;9.74;100.00;98999.94;12223130;19;20013;-83
2023/03/25 07:37:52;;;;;;;4.93;1.55;;;;;;;9.96;100.00;99001.72;12223407;19;20057;-83
2023/03/25 07:41:56;;;;;;;7.75;1.60;;;;;;;10.11;100.00;98999.06;12204106;19;20003;-83
2023/03/25 07:46:16;;;;;;;4.68;1.67;;;;;;;10.16;100.00;98995.50;12220122;19;20028;-82
2023/03/25 07:50:20;;;;;;;6.13;1.38;;;;;;;10.24;99.88;98993.09;12222048;19;20011;-84
2023/03/25 07:54:25;;;;;;;9.35;1.23;;;;;;;10.59;96.34;98999.03;12201416;19;20019;-83
2023/03/25 07:58:27;;;;;;;7.72;1.30;;;;;;;10.94;92.53;99001.91;12220486;19;20017;-84
2023/03/25 08:02:28;;;;;;;5.95;1.38;;;;;;;10.92;87.83;99001.38;12199655;19;20349;-79
2023/03/25 08:06:30;;;;;;;5.72;2.33;;;;;;;11.13;87.68;99006.91;12229940;19;20010;-82
2023/03/25 08:10:33;;;;;;;7.60;1.87;;;;;;;11.45;87.10;99014.09;12220304;19;20024;-85
2023/03/25 08:14:35;;;;;;;10.48;1.65;;;;;;;11.72;83.29;99042.28;12198203;19;20014;-80
2023/03/25 08:18:37;;;;;;;10.00;1.70;;;;;;;11.81;83.04;99028.75;12232320;19;20365;-84
2023/03/25 08:22:39;;;;;;;14.38;1.88;;;;;;;12.01;82.19;99025.16;12216891;19;20006;-84
2023/03/25 08:26:41;;;;;;;5.03;1.90;;;;;;;11.90;77.80;99029.03;12193231;19;20024;-82
2023/03/25 08:30:44;;;;;;;10.20;1.70;;;;;;;12.01;77.97;99030.69;12210853;19;20372;-81
2023/03/25 08:34:46;;;;;;;6.85;1.35;;;;;;;11.92;78.33;99032.34;12214778;19;20015;-81
2023/03/25 08:38:49;;;;;;;8.25;2.50;;;;;;;12.35;77.68;99032.84;12192952;19;20012;-82
2023/03/25 08:42:51;;;;;;;6.70;1.83;;;;;;;12.50;78.09;99021.72;12218803;19;20010;-82
2023/03/25 08:46:53;;;;;;;5.38;0.95;;;;;;;12.56;75.87;99011.50;12225214;19;20007;-83
2023/03/25 08:50:55;;;;;;;6.45;2.05;;;;;;;12.72;75.40;99011.13;12207372;19;20074;-81
2023/03/25 08:54:56;;;;;;;10.60;1.50;;;;;;;12.73;75.13;99012.78;12225328;19;20002;-81
2023/03/25 08:58:59;;;;;;;11.65;2.10;;;;;;;12.70;74.32;99013.38;12229005;19;20010;-82
2023/03/25 09:03:02;;;;;;;6.32;1.08;;;;;;;12.60;75.03;99009.81;12201896;19;20011;-83
2023/03/25 09:07:09;;;;;;;3.90;1.45;;;;;;;12.51;76.66;98996.56;12223316;19;20031;-81
2023/03/25 09:11:14;;;;;;;8.68;1.40;;;;;;;12.45;77.80;98983.88;12233905;19;20014;-82
2023/03/25 09:15:25;;;;;;;10.63;1.60;;;;;;;12.43;77.96;98988.03;12203132;19;20048;-83
2023/03/25 09:19:27;;;;;;;;;;;;;;;12.32;79.13;98987.25;12223345;19;20023;-80
2023/03/25 09:23:29;;;;;;;7.70;2.50;;;;;;;12.03;80.21;98987.88;12197226;19;19935;-80
2023/03/25 09:27:31;;;;;;;5.93;1.25;;;;;;;11.81;82.06;98984.59;12218578;19;20022;-81
2023/03/25 09:31:34;;;;;;;2.63;1.02;;;;;;;11.72;83.55;98980.72;12218290;19;20054;-80
2023/03/25 09:35:39;;;;;;;6.50;1.00;;;;;;;11.81;85.09;98971.63;12198281;19;20010;-80
2023/03/25 09:39:41;;;;;;;6.53;1.77;;;;;;;11.81;83.14;98985.41;12219174;19;20011;-80
2023/03/25 09:44:11;;;;;;;7.90;1.23;;;;;;;11.77;81.54;98977.97;12220724;19;20471;-80
2023/03/25 09:48:31;;;;;;;4.00;1.20;;;;;;;11.82;80.21;98959.47;12197292;19;20014;-81
2023/03/25 09:52:46;;;;;;;6.55;1.50;;;;;;;11.79;80.08;98968.28;12222806;19;20357;-80
2023/03/25 09:56:50;;;;;;;5.57;1.63;;;;;;;11.66;83.37;98982.69;12229830;19;20002;-79
2023/03/25 10:01:02;;;;;;;9.02;1.23;;;;;;;11.57;86.92;98979.66;12233882;19;20014;-79
2023/03/25 10:05:23;;;;;;;6.25;1.20;;;;;;;11.90;87.75;99006.94;12254153;19;20015;-79
2023/03/25 10:09:41;;;;;;;8.13;1.17;;;;;;;12.58;80.57;98992.66;12210712;19;20014;-79
2023/03/25 10:14:00;;;;;;;3.88;1.00;;;;;;;13.03;76.83;99004.59;12216917;19;20014;-80
2023/03/25 10:18:26;;;;;;;2.55;0.77;;;;;;;13.22;74.02;98987.06;12197977;19;20480;-80
2023/03/25 10:22:54;;;;;;;3.03;0.82;;;;;;;12.86;75.60;98993.94;12217482;19;20028;-79
2023/03/25 10:27:04;;;;;;;2.97;0.70;;;;;;;12.21;79.84;98996.69;12195376;19;20808;-80
2023/03/25 10:31:13;;;;;;;2.38;0.70;;;;;;;11.70;80.16;99019.66;12212416;19;20083;-80
2023/03/25 10:35:28;;;;;;;1.90;0.47;;;;;;;10.75;85.44;99031.06;12228152;19;20014;-82
2023/03/25 10:39:37;;;;;;;2.65;0.47;;;;;;;9.97;90.93;99030.91;12200320;19;20050;-80
2023/03/25 10:43:40;;;;;;;5.50;0.90;;;;;;;9.38;100.00;99061.25;12216503;19;20010;-78
2023/03/25 10:47:45;;;;;;;1.77;0.65;;;;;;;9.19;100.00;99052.50;12199223;19;20472;-80
2023/03/25 10:51:52;;;;;;;5.43;0.88;;;;;;;9.32;100.00;99027.38;12220235;19;20047;-80
2023/03/25 10:56:01;;;;;;;3.92;0.80;;;;;;;9.52;100.00;99040.47;12215112;19;20058;-80
2023/03/25 11:00:18;;;;;;;3.47;0.80;;;;;;;9.99;100.00;99029.56;12192663;19;20014;-79
2023/03/25 11:04:22;;;;;;;4.53;0.65;;;;;;;10.24;100.00;99026.13;12210811;19;20376;-79
2023/03/25 11:08:26;;;;;;;2.70;0.93;;;;;;;10.22;100.00;99027.47;12194377;19;20345;-79
2023/03/25 11:12:30;;;;;;;7.68;0.80;;;;;;;10.38;100.00;99028.41;12214297;19;20010;-78
2023/03/25 11:16:52;;;;;;;1.63;0.60;;;;;;;10.61;100.00;99018.88;12216743;19;20003;-80
2023/03/25 11:21:08;;;;;;;2.20;0.70;;;;;;;10.94;100.00;99032.22;12203760;19;20837;-79
2023/03/25 11:25:40;;;;;;;2.35;0.88;;;;;;;11.80;100.00;99024.31;12236772;19;20006;-83
2023/03/25 11:29:53;;;;;;;4.57;0.90;;;;;;;12.42;98.57;99027.84;12211124;19;20014;-79
2023/03/25 11:34:06;;;;;;;;;;;;;;;12.71;91.66;99023.31;12220867;19;20025;-80
2023/03/25 11:38:36;;;;;;;2.80;0.70;;;;;;;12.88;88.78;99011.91;12233266;19;19906;-80
2023/03/25 11:42:41;;;;;;;0.65;0.32;;;;;;;13.17;79.38;99027.75;12250461;19;20003;-81
2023/03/25 11:46:46;;;;;;;0.70;0.30;;;;;;;13.88;76.98;99035.56;12260674;19;20486;-81
2023/03/25 11:50:53;;;;;;;0.93;0.40;;;;;;;14.20;74.92;99030.56;12198394;19;20015;-83
2023/03/25 11:54:55;;;;;;;0.95;0.47;;;;;;;14.76;76.21;99008.59;12214369;19;20492;-81
2023/03/25 11:59:00;;;;;;;1.17;0.40;;;;;;;15.08;69.19;99006.22;12212165;19;20011;-80
2023/03/25 12:03:13;;;;;;;0.73;0.50;;;;;;;14.95;67.73;99011.38;12190863;19;20015;-80
2023/03/25 12:07:18;;;;;;;1.60;0.60;;;;;;;14.23;69.67;99021.66;12215143;19;20025;-81
2023/03/25 12:11:29;;;;;;;3.70;0.85;;;;;;;13.82;71.07;99005.44;12213091;19;20026;-80
2023/03/25 12:15:55;;;;;;;3.05;0.47;;;;;;;13.30;71.38;99029.13;12192537;19;20022;-84
2023/03/25 12:20:23;;;;;;;1.73;0.50;;;;;;;11.72;97.20;99031.25;12208184;19;20032;-81
2023/03/25 12:24:40;;;;;;;4.28;1.02;;;;;;;10.78;100.00;99027.78;12214178;19;20006;-83
2023/03/25 12:29:20;;;;;;;1.73;0.77;;;;;;;10.24;100.00;98995.84;12201367;19;20007;-81
2023/03/25 12:33:34;;;;;;;2.40;0.65;;;;;;;10.75;100.00;98999.94;12172224;19;20043;-81
2023/03/25 12:38:17;;;;;;;13.93;1.90;;;;;;;10.57;100.00;99013.09;12204104;19;20359;-82
2023/03/25 12:42:22;;;;;;;3.40;0.70;;;;;;;10.34;100.00;99000.59;12191226;19;20010;-79
2023/03/25 12:47:07;;;;;;;4.85;0.90;;;;;;;11.17;100.00;98999.75;12205819;19;20349;-80
2023/03/25 12:51:28;;;;;;;3.67;0.98;;;;;;;12.63;100.00;98993.47;12183766;19;20011;-82
2023/03/25 12:56:13;;;;;;;3.72;0.82;;;;;;;12.78;100.00;98982.34;12202803;19;20002;-79
2023/03/25 13:00:32;;;;;;;1.17;0.60;;;;;;;12.18;89.18;98991.72;12175940;19;20060;-79
2023/03/25 13:05:04;;;;;;;3.45;0.60;;;;;;;11.64;89.72;99004.19;12200251;19;20026;-78
2023/03/25 13:09:38;;;;;;;3.47;0.60;;;;;;;11.51;82.52;99037.84;12179796;19;20014;-80
2023/03/25 13:13:43;;;;;;;5.05;0.90;;;;;;;11.46;84.70;99029.56;12215624;19;20006;-80
2023/03/25 13:17:50;;;;;;;2.67;0.40;;;;;;;11.70;75.25;99019.66;12187037;19;20488;-79
2023/03/25 13:21:58;;;;;;;2.30;0.57;;;;;;;11.97;75.52;99010.25;12205909;19;20484;-80
2023/03/25 13:26:08;;;;;;;2.20;0.50;;;;;;;11.95;73.50;99006.94;12208679;19;20679;-79
2023/03/25 13:30:22;;;;;;;1.30;0.80;;;;;;;12.05;75.21;99007.75;12182194;19;20050;-80
2023/03/25 13:34:34;;;;;;;1.83;0.60;;;;;;;12.41;73.42;98991.09;12204329;19;20003;-80
2023/03/25 13:38:45;;;;;;;1.67;0.50;;;;;;;12.62;71.57;98991.84;12194278;19;20010;-80
2023/03/25 13:43:09;;;;;;;3.03;0.50;;;;;;;12.70;75.09;98998.69;12218918;19;20070;-80
2023/03/25 13:47:10;;;;;;;5.95;0.98;;;;;;;12.92;72.06;98984.50;12216004;19;20006;-82
2023/03/25 13:51:13;;;;;;;5.25;0.52;;;;;;;13.07;66.23;98980.81;12217592;19;20006;-80
2023/03/25 13:55:18;;;;;;;2.28;0.80;;;;;;;13.75;62.17;98974.50;12239297;19;20043;-80
2023/03/25 13:59:38;;;;;;;2.72;0.60;;;;;;;14.13;63.58;98965.25;12240126;19;20007;-80
2023/03/25 14:04:09;;;;;;;1.67;0.60;;;;;;;14.40;53.65;98963.00;12220945;19;20519;-81
2023/03/25 14:08:30;;;;;;;2.80;0.80;;;;;;;14.42;52.79;98966.28;12221746;19;20066;-81
2023/03/25 14:12:37;;;;;;;2.53;0.70;;;;;;;14.23;53.93;98977.34;12181899;19;20011;-81
2023/03/25 14:16:44;;;;;;;3.45;0.70;;;;;;;14.00;52.29;98976.19;12201162;19;20010;-79
2023/03/25 14:20:47;;;;;;;4.72;0.70;;;;;;;14.00;58.29;98959.56;12182038;19;20010;-79
2023/03/25 14:24:50;;;;;;;1.63;0.70;;;;;;;14.28;55.72;98974.50;12204208;19;20083;-81
2023/03/25 14:28:53;;;;;;;1.77;0.60;;;;;;;14.94;48.85;98983.97;12206099;19;20118;-82
2023/03/25 14:33:02;;;;;;;1.35;0.45;;;;;;;14.76;48.69;98988.38;12182326;19;20512;-80
2023/03/25 14:37:07;;;;;;;2.42;0.70;;;;;;;14.90;48.26;98994.84;12208032;19;20039;-82
2023/03/25 14:41:12;;;;;;;1.42;0.68;;;;;;;15.62;44.01;99000.13;12205161;19;20011;-81
2023/03/25 14:45:30;;;;;;;1.92;0.70;;;;;;;16.34;44.05;98994.13;12185262;19;20006;-83
2023/03/25 14:49:53;;;;;;;2.13;0.80;;;;;;;16.84;42.47;98985.91;12205408;19;20006;-79
2023/03/25 14:54:15;;;;;;;3.27;0.80;;;;;;;17.27;41.84;98996.63;12181329;19;20010;-81
2023/03/25 14:58:25;;;;;;;5.05;0.75;;;;;;;17.40;40.94;98974.59;12205181;19;20015;-81
2023/03/25 15:02:30;;;;;;;6.68;1.13;;;;;;;17.06;41.19;98970.41;12187095;19;20006;-81
2023/03/25 15:06:33;;;;;;;3.20;0.60;;;;;;;16.67;41.76;98990.44;12254715;19;20018;-80
2023/03/25 15:11:13;;;;;;;3.08;1.15;;;;;;;16.27;42.90;98965.06;12242076;19;20011;-80
2023/03/25 15:15:31;;;;;;;2.60;0.77;;;;;;;16.00;43.71;98977.81;12181012;19;20010;-80
2023/03/25 15:20:01;;;;;;;4.03;0.95;;;;;;;15.38;44.41;98971.66;12203680;19;20007;-80
2023/03/25 15:24:10;;;;;;;6.00;0.90;;;;;;;15.07;45.68;98971.28;12181285;19;20014;-82
2023/03/25 15:28:27;;;;;;;2.50;0.65;;;;;;;15.10;45.52;98973.47;12204542;19;20444;-81
2023/03/25 15:32:46;;;;;;;3.22;0.80;;;;;;;15.05;44.93;98982.69;12182547;19;20025;-82
2023/03/25 15:37:10;;;;;;;4.03;0.80;;;;;;;15.17;44.12;98962.78;12198808;19;20213;-82
2023/03/25 15:41:35;;;;;;;3.40;0.93;;;;;;;15.24;43.16;98960.47;12204252;19;20010;-83
2023/03/25 15:46:07;;;;;;;3.20;0.70;;;;;;;14.96;42.41;98965.91;12179672;19;20420;-85
2023/03/25 15:50:23;;;;;;;1.83;0.60;;;;;;;14.79;42.18;98958.06;12197832;19;20006;-84
2023/03/25 15:54:47;;;;;;;4.35;0.70;;;;;;;14.82;43.39;98962.22;12188288;19;20007;-81
2023/03/25 15:58:56;;;;;;;3.40;0.63;;;;;;;14.90;42.13;98969.03;12214415;19;20014;-80
2023/03/25 16:03:02;;;;;;;1.65;0.68;;;;;;;14.91;42.30;98974.28;12189730;19;20010;-81
2023/03/25 16:07:08;;;;;;;5.88;0.75;;;;;;;14.78;43.12;98973.06;12213131;19;19999;-82
2023/03/25 16:11:23;;;;;;;3.22;0.85;;;;;;;14.80;43.21;98967.22;12213299;19;20475;-85
2023/03/25 16:15:28;;;;;;;5.50;1.13;;;;;;;15.39;42.53;98964.97;12192624;19;20354;-78
2023/03/25 16:19:40;;;;;;;3.63;1.13;;;;;;;15.84;41.84;98982.81;12212536;19;20026;-84
2023/03/25 16:23:42;;;;;;;4.60;0.73;;;;;;;16.03;41.69;98974.44;12193041;19;20000;-80
2023/03/25 16:27:49;;;;;;;4.87;0.83;;;;;;;15.86;41.93;98976.97;12206297;19;20010;-81
2023/03/25 16:31:57;;;;;;;4.90;1.17;;;;;;;15.47;42.07;98987.31;12207988;19;20010;-82
2023/03/25 16:36:07;;;;;;;5.03;0.60;;;;;;;15.44;43.12;98984.31;12180469;19;20031;-81
2023/03/25 16:40:18;;;;;;;4.82;0.95;;;;;;;15.65;42.14;98977.31;12207561;19;20054;-80
2023/03/25 16:44:22;;;;;;;2.65;1.00;;;;;;;15.59;42.41;98980.47;12211872;19;20531;-79
2023/03/25 16:48:28;;;;;;;3.35;0.73;;;;;;;15.09;42.41;98975.41;12187804;19;19998;-85
2023/03/25 16:52:32;;;;;;;4.65;0.70;;;;;;;14.75;44.15;98976.44;12207656;19;20389;-83
2023/03/25 16:56:38;;;;;;;3.75;0.70;;;;;;;14.35;45.52;98972.19;12189465;19;20070;-81
2023/03/25 17:00:42;;;;;;;5.03;1.20;;;;;;;13.96;47.09;98964.88;12211185;19;21395;-82
2023/03/25 17:04:49;;;;;;;2.42;0.80;;;;;;;13.70;47.88;98971.78;12217271;19;20010;-82
2023/03/25 17:08:54;;;;;;;5.63;2.53;;;;;;;13.58;48.08;98970.19;12198618;19;20017;-80
2023/03/25 17:13:03;;;;;;;6.20;1.48;;;;;;;13.45;49.21;98976.41;12235179;19;20006;-81
2023/03/25 17:17:21;;;;;;;3.17;1.00;;;;;;;13.39;49.61;98972.03;12245459;19;20805;-82
2023/03/25 17:21:28;;;;;;;5.22;1.20;;;;;;;13.36;50.24;98984.50;12223307;19;20033;-83
2023/03/25 17:25:48;;;;;;;4.60;1.13;;;;;;;13.22;50.78;98980.69;12233537;19;20035;-81
2023/03/25 17:29:56;;;;;;;4.32;0.80;;;;;;;13.23;51.30;98985.94;12211006;19;20006;-79
2023/03/25 17:34:20;;;;;;;4.15;1.02;;;;;;;13.18;51.19;98993.47;12234064;19;20049;-81
2023/03/25 17:38:35;;;;;;;3.20;0.90;;;;;;;13.19;51.50;99000.63;12206805;19;20009;-80
2023/03/25 17:42:39;;;;;;;5.53;1.00;;;;;;;13.07;52.12;99005.69;12219740;19;20013;-81
2023/03/25 17:46:41;;;;;;;2.40;0.70;;;;;;;13.13;51.03;99030.28;12233225;19;20011;-86
2023/03/25 17:50:54;;;;;;;;;;;;;;;12.96;51.74;99066.59;12199445;19;20013;-83
2023/03/25 17:54:56;;;;;;;2.78;0.60;;;;;;;12.95;54.60;99077.94;12271207;19;19914;-83
2023/03/25 17:59:04;;;;;;;1.98;0.50;;;;;;;12.67;56.99;99082.19;12273057;19;20008;-85
2023/03/25 18:03:15;;;;;;;3.10;0.60;;;;;;;12.45;58.17;99093.59;12215619;19;20002;-83
2023/03/25 18:07:20;;;;;;;3.97;0.63;;;;;;;12.21;60.25;99107.16;12205726;19;20433;-83
2023/03/25 18:11:22;;;;;;;2.33;0.50;;;;;;;12.15;61.74;99105.50;12191620;19;19998;-84
2023/03/25 18:15:24;;;;;;;1.15;0.30;;;;;;;11.71;65.62;99139.97;12207361;19;20026;-83
2023/03/25 18:19:29;;;;;;;3.25;0.55;;;;;;;11.29;68.58;99131.88;12203615;19;20341;-84
2023/03/25 18:23:31;;;;;;;5.07;0.20;;;;;;;10.92;71.48;99130.09;12187109;19;20018;-83
2023/03/25 18:27:34;;;;;;;0.85;0.30;;;;;;;10.51;75.23;99132.63;12206871;19;20011;-84
2023/03/25 18:31:45;;;;;;;1.02;0.30;;;;;;;10.27;77.32;99118.41;12213008;19;20029;-82
2023/03/25 18:35:48;;;;;;;1.48;0.30;;;;;;;10.07;79.62;99129.25;12187811;19;20010;-82
2023/03/25 18:39:51;;;;;;;0.40;0.20;;;;;;;9.88;81.00;99126.91;12206953;19;21247;-82
2023/03/25 18:43:52;;;;;;;1.75;0.40;;;;;;;9.75;81.06;99138.31;12214654;19;20515;-83
2023/03/25 18:47:55;;;;;;;3.58;0.55;;;;;;;9.64;82.85;99139.31;12193122;19;20030;-82
2023/03/25 18:51:58;;;;;;;0.50;0.33;;;;;;;9.51;86.24;99144.13;12210659;19;20019;-81
2023/03/25 18:56:01;;;;;;;0.30;0.30;;;;;;;9.43;87.06;99144.63;12226961;19;20236;-82
2023/03/25 19:00:13;;;;;;;0.45;0.30;;;;;;;9.38;88.47;99150.06;12186468;19;20014;-82
2023/03/25 19:04:17;;;;;;;;;;;;;;;9.38;87.29;99152.81;12210725;19;20017;-83
2023/03/25 19:08:19;;;;;;;1.93;0.50;;;;;;;9.33;87.97;99147.25;12206843;19;19926;-81
2023/03/25 19:12:21;;;;;;;2.00;0.90;;;;;;;9.23;90.40;99149.88;12186255;19;20050;-82
2023/03/25 19:16:22;;;;;;;1.35;0.47;;;;;;;9.10;94.15;99151.09;12206813;19;20300;-82
2023/03/25 19:20:28;;;;;;;1.30;0.70;;;;;;;9.00;96.55;99168.28;12181655;19;20018;-83